Portada
METAR-TAF:

METAR-TAF

Aeroports :

Lappeenranta, Finlàndia

latitud: 61-02-45N, longitud: 028-08-55E, altitud: 106 m

Observació

L'informe es va fer fa 26 minuts, a les 19:20 UTC
Vent 12 kt del Sud-Oest, variant entre Sud i Oest/Sud-Oest
Temperatura 4°C
Humitat 81%
Pressió 987 hPa
Visibilitat 10 km o més
Cel cobert a una alçada de 2100 ft

METAR: EFLP 171920Z AUTO 22012KT 180V250 9999 OVC021 04/01 Q0987

Hora: 21:46 (19:46 UTC)

Pronòstic

L'informe es va fer fa 8 hores i 13 minuts, a les 11:33 UTC
Pronòstic vàlid del 17 a les 12 UTC al 17 a les 14 UTC
Vent 15 kt del Oest/Sud-Oest
Visibilitat 10 km o més
Cel ennuvolat a una alçada de 1400 ft
Temporalment
l' 17 a les 12 UTC al 17 a les 14 UTC
Vent 15 kt del Oest/Sud-Oest amb ràfegues de 28 kt
Cel ennuvolat a una alçada de 1500 ft

TAF: EFLP 171133Z 1712/1714 24015KT 9999 BKN014 TEMPO 1712/1714 24015G28KT BKN015

Observacions i pronòstics meteorològics de més de 4000 aeroports (METAR i TAF).

Les estacions disponibles són els punts grocs i vermells al mapa.

Posi el ratolí al punt desitjat per veure el nom de l'estació.

Feu clic per veure les observacions i els pronòstics meteorològics.

Per canviar el mapa: feu clic els botons verds amb una creu de color negre per apropar; al botó verd amb un guió per allunyar la imatge; o en les fletxes verdes per a mapes adjacents.


METAR-TAF: